• Join FlightAware (Why Join?)
  • Login
  • US Flag 
07:42PM EST


 

Airport Tracker/Info


-or-


 

Live Flight TrackerFlight Track Log ✈ N2075T ✈ 11-Jul-2014 ✈ KFMH - KBDR

Flight Track Log - Related Links

Times and Time Zones

All times are in EDT time to prevent confusion due to time zone crossing. See the N2075T flight status page for this flight to view local times or setup timezone preferences in your user account.

Time Position Orientation Groundspeed Altitude Reporting Facility
EDT Latitude Longitude Course Direction KTS MPH feet Rate Location/Type
01:58PM 41.3850 -70.9250 256° West 129 148 3,000  Level Boston Center
02:00PM 41.3786 -70.9886 262° West 130 150 3,000  Level Boston Center
02:01PM 41.3733 -71.0469 263° West 129 148 3,000  Level Boston Center
02:02PM 41.3703 -71.0944 265° West 129 148 3,000  Level Boston Center
02:03PM 41.6150 -70.7343 256° West  Level FlightAware Approximate
02:03PM 41.3661 -71.1361 262° West 130 150 3,000  Level Boston Center
02:04PM 41.6071 -70.7776 256° West  Level FlightAware Approximate
02:04PM 41.3614 -71.1803 262° West 131 151 3,000  Level Boston Center
02:05PM 41.3567 -71.2244 262° West 127 146 3,000  Level Boston Center
02:06PM 41.3519 -71.2800 264° West 130 150 3,000  Level Boston Center
02:07PM 41.3464 -71.3383 263° West 133 153 3,000  Level Boston Center
02:08PM 41.3439 -71.3717 264° West 130 150 3,000  Level Boston Center
02:09PM 41.3389 -71.4272 263° West 130 150 3,000  Level Boston Center
02:10PM 41.3347 -71.4686 262° West 134 154 3,000  Level Boston Center
02:11PM 41.3289 -71.5181 261° West 132 152 3,000  Level Boston Center
02:12PM 41.3228 -71.5678 261° West 128 147 3,000 -60 Level Boston Center
02:13PM 41.3183 -71.6206 264° West 126 145 2,900  Descending Boston Center
02:14PM 41.3136 -71.6647 262° West 133 153 3,000  Climbing Boston Center
02:15PM 41.3103 -71.7122 265° West 119 137 3,000  Level Boston Center
02:16PM 41.3067 -71.7597 264° West 151 174 3,000  Level Boston Center
02:17PM 41.3011 -71.8064 261° West 132 152 3,000  Level Boston Center
02:18PM 41.2972 -71.8567 264° West 123 142 3,000  Level Boston Center
02:19PM 41.2900 -71.9114 260° West 127 146 3,000  Level Boston Center
02:20PM 41.2864 -71.9589 264° West 131 151 3,000  Level Boston Center
02:21PM 41.2831 -72.0061 265° West 130 150 3,000  Level Boston Center
02:22PM 41.2775 -72.0531 261° West 129 148 3,000  Level Boston Center
02:23PM 41.2717 -72.0997 261° West 129 148 3,000  Level Boston Center
02:24PM 41.2658 -72.1578 262° West 131 151 3,000  Level Boston Center
02:25PM 41.2611 -72.2106 263° West 134 154 3,000  Level Boston Center
02:26PM 41.2556 -72.2572 261° West 127 146 3,000  Level Boston Center
02:28PM 41.2500 -72.3500 265° West 131 151 3,100  Climbing New York TRACON
02:29PM 41.2333 -72.4000 246° West 131 151 3,100  Level New York TRACON
02:30PM 41.2333 -72.4500 270° West 133 153 3,100  Level New York TRACON
02:31PM 41.2333 -72.5000 270° West 133 153 3,100  Level New York TRACON
02:32PM 41.2333 -72.5333 270° West 132 152 3,100  Level New York TRACON
02:33PM 41.2167 -72.5833 246° West 132 152 3,100  Level New York TRACON
02:34PM 41.2167 -72.6500 270° West 132 152 3,100  Level New York TRACON
02:35PM 41.2167 -72.6833 270° West 129 148 3,100  Level New York TRACON
02:36PM 41.2000 -72.7333 246° West 131 151 3,100  Level New York TRACON
02:37PM 41.2000 -72.7833 270° West 128 147 3,100  Level New York TRACON
02:39PM 41.1873 -72.8596 258° West  Level FlightAware Approximate
02:46PM 41.1500 -73.1167 259° West  Level FlightAware Approximate
02:47PM 41.1635 -73.1262 332° Northwest  Level Estimated
02:48PM 41.1635 -73.1262 North  Level Estimated
02:49PM 41.1635 -73.1262 North  Level Estimated